Hauptseite
METAR-TAF:

METAR-TAF

Flughäfen :

St. Moritz, Schweiz

Flughafen Engadin

Breite: 46-32-03N, Länge: 9-53-03E, Höhe: 1707 m

Beobachtung

Neuester Wetterbericht von vor 34 Minuten, um 21:20 UTC
Wind 13 kt aus Nord
Temperatur -14°C
Luftfeuchtigkeit 72%
Luftdruck 1004 hPa
Sichtweite 10 km oder mehr
keine Wolken unter 1500 m und keine Kumulonimbus oder Gewitterwolken

METAR: LSZS 252120Z AUTO 01013KT CAVOK M14/M18 Q1004

Zeit: 22:54 (21:54 UTC)

Prognose

Neuester Wetterbericht von vor 7 Stunden und 29 Minuten, um 14:25 UTC
Gültige Prognose vom 25 um 15 UTC bis 25 um 24 UTC
Wind 8 kt aus Nord/Nordost
Sichtweite 10 km oder mehr
Aufgelockert bewölkt in der Höhe von 4000 ft
Zeitweise
vom 25 um 15 UTC bis 25 um 18 UTC
Wind 15 kt aus Nord/Nordost, Böen bis zu 25 kt

TAF: LSZS 251425Z 2515/2524 03008KT 9999 SCT040 TXM06/2515Z TEMPO 2515/2518 02015G25KT

Wetterbeobachtungen und Prognosen von mehr als 4000 Flughäfen (METAR und TAF Bericht).

Die verfügbaren Stationen werden durch gelbe und rote Markierungen auf der Karte dargestellt.

Führen Sie die Maus auf sie, um den Namen der Station zu sehen.

Darauf klicken, um die Beobachtung von Wetterbeobachtungen und Prognosen zu sehen.

Um die Karte zu ändern : klicken Sie auf den grünen Tasten mit einem schwarzen Kreuz Zum Vergrößern, auf den grünen Button mit einem Gedankenstrich zu verkleinern, oder auf die grünen Pfeile für benachbarte Karten.


METAR-TAF: